Startpagina
METAR-TAF:

METAR-TAF

Vliegvelden :

Nörvenich, Duitsland

breedte: 50-50N, lengte: 006-40E, hoogte: 118 m

Actueel weer

Dit bericht is 50 minuten geleden gemaakt, om 05:20 UTC
Wind 5 kt uit het zuiden
Temperatuur 13°C
Vochtigheid 82%
Druk 1015 hPa
Zicht 10 km of meer
Weinig wolken op 4000 ft

METAR: ETNN 190520Z 17005KT 9999 FEW040 13/10 Q1015 BLU+BLU+

Tijdstip: 08:10 (06:10 UTC)

Verwachting

Dit bericht is 2 uur en het 8 minuten geleden gemaakt, om 04:02 UTC
Verwachting geldig van 19 om 05 UTC tot 19 om 14 UTC
Wind 5 kt uit het zuiden
Zicht 10 km of meer
Weinig wolken op 1500 ft
Wijzigt naar
van 19 om 07 UTC tot 19 om 09 UTC
Wind 12 kt uit het westzuidwesten met uitschieters tot 22 kt
Zicht 10 km of meer
Verspreide wolken op 3000 ft

TAF: ETNN 190402Z 1905/1914 19005KT 9999 NSW FEW015 BECMG 1907/1909 25012G22KT 9999 NSW SCT030 BY ETGL

Waarnemingen en weersverwachtingen van meer dan 4000 vliegvelden (METAR en TAF).

De beschikbare stations zijn de gele en rode punten op de kaart.

Ga met uw muis naar het station om de naam te zien.

Klik dan om waarnemingen en weersverwachtingen te zien.

kaart wijzigen: klik op de groene knoppen met een zwart kruis om in te zoomen, op de groene knop met een streepje om uit te zoomen of op de groene pijlen voor aangrenzende kaarten.


METAR-TAF: